sensor_id;sensor_type;location;lat;lon;timestamp;pressure;altitude;pressure_sealevel;temperature;humidity
41062;BME280;26812;42.662;23.352;2023-07-28T00:00:43;95000.59;;;18.31;48.98
41062;BME280;26812;42.662;23.352;2023-07-28T00:03:09;95007.69;;;18.36;49.25
41062;BME280;26812;42.662;23.352;2023-07-28T00:05:36;95002.31;;;18.40;49.15
41062;BME280;26812;42.662;23.352;2023-07-28T00:08:01;94986.41;;;18.22;49.58
41062;BME280;26812;42.662;23.352;2023-07-28T00:10:27;95002.09;;;18.29;49.47
41062;BME280;26812;42.662;23.352;2023-07-28T00:12:52;95001.03;;;18.11;49.78
41062;BME280;26812;42.662;23.352;2023-07-28T00:15:17;94992.22;;;17.98;49.78
41062;BME280;26812;42.662;23.352;2023-07-28T00:17:43;95011.81;;;17.84;50.09
41062;BME280;26812;42.662;23.352;2023-07-28T00:20:10;95003.88;;;17.76;50.42
41062;BME280;26812;42.662;23.352;2023-07-28T00:22:35;95009.09;;;17.84;50.31
41062;BME280;26812;42.662;23.352;2023-07-28T00:25:01;94996.22;;;18.04;49.61
41062;BME280;26812;42.662;23.352;2023-07-28T00:27:26;94997.88;;;18.31;49.13
41062;BME280;26812;42.662;23.352;2023-07-28T00:29:51;94991.63;;;18.08;49.56
41062;BME280;26812;42.662;23.352;2023-07-28T00:32:17;94975.00;;;17.94;49.49
41062;BME280;26812;42.662;23.352;2023-07-28T00:34:48;94990.16;;;17.72;50.21
41062;BME280;26812;42.662;23.352;2023-07-28T00:37:13;94991.16;;;17.64;50.81
41062;BME280;26812;42.662;23.352;2023-07-28T00:39:39;94991.94;;;17.64;50.47
41062;BME280;26812;42.662;23.352;2023-07-28T00:42:05;94998.13;;;17.81;49.86
41062;BME280;26812;42.662;23.352;2023-07-28T00:44:30;94993.59;;;17.88;49.45
41062;BME280;26812;42.662;23.352;2023-07-28T00:46:55;94988.03;;;18.04;49.34
41062;BME280;26812;42.662;23.352;2023-07-28T00:49:21;94994.31;;;17.85;49.46
41062;BME280;26812;42.662;23.352;2023-07-28T00:51:46;94990.88;;;17.50;50.01
41062;BME280;26812;42.662;23.352;2023-07-28T00:54:13;94993.81;;;17.60;50.04
41062;BME280;26812;42.662;23.352;2023-07-28T00:56:39;94955.16;;;17.35;50.42
41062;BME280;26812;42.662;23.352;2023-07-28T00:59:04;94989.38;;;17.52;50.74
41062;BME280;26812;42.662;23.352;2023-07-28T01:01:29;94988.41;;;17.64;50.53
41062;BME280;26812;42.662;23.352;2023-07-28T01:03:55;94995.00;;;17.63;50.79
41062;BME280;26812;42.662;23.352;2023-07-28T01:06:29;95007.00;;;17.58;51.23
41062;BME280;26812;42.662;23.352;2023-07-28T01:09:02;94985.84;;;17.52;51.08
41062;BME280;26812;42.662;23.352;2023-07-28T01:11:29;95005.72;;;17.72;50.91
41062;BME280;26812;42.662;23.352;2023-07-28T01:13:54;95003.06;;;17.75;50.29
41062;BME280;26812;42.662;23.352;2023-07-28T01:16:20;95003.97;;;17.63;50.20
41062;BME280;26812;42.662;23.352;2023-07-28T01:18:46;95001.84;;;17.73;49.80
41062;BME280;26812;42.662;23.352;2023-07-28T01:21:25;94997.53;;;17.52;49.80
41062;BME280;26812;42.662;23.352;2023-07-28T01:26:36;95002.56;;;17.50;49.03
41062;BME280;26812;42.662;23.352;2023-07-28T01:29:03;95006.56;;;17.56;48.58
41062;BME280;26812;42.662;23.352;2023-07-28T01:31:30;94997.72;;;17.44;48.59
41062;BME280;26812;42.662;23.352;2023-07-28T01:33:55;94990.72;;;17.23;48.91
41062;BME280;26812;42.662;23.352;2023-07-28T01:36:21;94997.59;;;17.36;49.14
41062;BME280;26812;42.662;23.352;2023-07-28T01:38:46;94979.63;;;17.51;48.41
41062;BME280;26812;42.662;23.352;2023-07-28T01:41:11;95002.56;;;17.50;48.69
41062;BME280;26812;42.662;23.352;2023-07-28T01:43:37;94957.41;;;17.30;47.92
41062;BME280;26812;42.662;23.352;2023-07-28T01:46:02;94993.66;;;17.53;47.72
41062;BME280;26812;42.662;23.352;2023-07-28T01:48:27;94994.78;;;17.33;48.37
41062;BME280;26812;42.662;23.352;2023-07-28T01:50:53;95004.47;;;17.30;48.55
41062;BME280;26812;42.662;23.352;2023-07-28T01:53:18;94978.97;;;17.19;48.21
41062;BME280;26812;42.662;23.352;2023-07-28T01:55:44;95001.91;;;17.02;48.46
41062;BME280;26812;42.662;23.352;2023-07-28T01:58:09;94989.31;;;16.79;48.51
41062;BME280;26812;42.662;23.352;2023-07-28T02:00:34;94993.38;;;16.69;49.15
41062;BME280;26812;42.662;23.352;2023-07-28T02:03:00;95000.75;;;16.84;49.06
41062;BME280;26812;42.662;23.352;2023-07-28T02:05:27;95004.75;;;17.25;49.02
41062;BME280;26812;42.662;23.352;2023-07-28T02:07:53;95003.41;;;17.00;49.11
41062;BME280;26812;42.662;23.352;2023-07-28T02:10:19;94986.53;;;16.75;49.14
41062;BME280;26812;42.662;23.352;2023-07-28T02:12:44;94986.16;;;17.12;49.10
41062;BME280;26812;42.662;23.352;2023-07-28T02:15:11;94965.25;;;16.96;49.36
41062;BME280;26812;42.662;23.352;2023-07-28T02:17:36;95002.69;;;17.19;49.01
41062;BME280;26812;42.662;23.352;2023-07-28T02:20:02;94991.19;;;17.10;48.45
41062;BME280;26812;42.662;23.352;2023-07-28T02:22:29;94994.16;;;16.85;49.31
41062;BME280;26812;42.662;23.352;2023-07-28T02:24:54;94993.19;;;17.13;48.91
41062;BME280;26812;42.662;23.352;2023-07-28T02:27:19;95009.88;;;17.11;49.38
41062;BME280;26812;42.662;23.352;2023-07-28T02:29:45;95004.06;;;16.93;49.65
41062;BME280;26812;42.662;23.352;2023-07-28T02:32:11;95011.72;;;16.72;51.00
41062;BME280;26812;42.662;23.352;2023-07-28T02:34:36;95008.03;;;16.64;50.98
41062;BME280;26812;42.662;23.352;2023-07-28T02:37:01;95006.78;;;16.46;51.25
41062;BME280;26812;42.662;23.352;2023-07-28T02:39:27;95007.31;;;16.20;52.50
41062;BME280;26812;42.662;23.352;2023-07-28T02:41:53;95008.28;;;16.28;52.67
41062;BME280;26812;42.662;23.352;2023-07-28T02:44:18;94992.31;;;16.42;52.25
41062;BME280;26812;42.662;23.352;2023-07-28T02:46:43;95012.59;;;16.44;52.49
41062;BME280;26812;42.662;23.352;2023-07-28T02:49:09;94997.75;;;16.58;51.60
41062;BME280;26812;42.662;23.352;2023-07-28T02:51:34;94964.25;;;16.54;51.31
41062;BME280;26812;42.662;23.352;2023-07-28T02:54:00;95010.50;;;16.54;51.52
41062;BME280;26812;42.662;23.352;2023-07-28T02:56:25;95017.75;;;16.34;52.55
41062;BME280;26812;42.662;23.352;2023-07-28T02:58:51;95011.56;;;15.90;53.77
41062;BME280;26812;42.662;23.352;2023-07-28T03:01:17;95011.13;;;15.88;54.15
41062;BME280;26812;42.662;23.352;2023-07-28T03:03:43;94995.66;;;16.20;52.21
41062;BME280;26812;42.662;23.352;2023-07-28T03:06:08;95007.03;;;16.09;52.02
41062;BME280;26812;42.662;23.352;2023-07-28T03:08:34;94999.88;;;15.73;53.03
41062;BME280;26812;42.662;23.352;2023-07-28T03:10:59;94977.47;;;15.76;53.20
41062;BME280;26812;42.662;23.352;2023-07-28T03:13:28;95002.63;;;15.89;52.96
41062;BME280;26812;42.662;23.352;2023-07-28T03:15:53;94994.91;;;15.91;52.88
41062;BME280;26812;42.662;23.352;2023-07-28T03:18:19;95013.72;;;16.12;52.38
41062;BME280;26812;42.662;23.352;2023-07-28T03:20:46;95016.06;;;15.98;52.67
41062;BME280;26812;42.662;23.352;2023-07-28T03:23:11;95011.81;;;16.28;51.74
41062;BME280;26812;42.662;23.352;2023-07-28T03:25:36;95021.41;;;15.94;52.62
41062;BME280;26812;42.662;23.352;2023-07-28T03:28:02;95032.69;;;16.24;52.30
41062;BME280;26812;42.662;23.352;2023-07-28T03:30:27;95032.84;;;16.63;51.18
41062;BME280;26812;42.662;23.352;2023-07-28T03:32:52;95029.25;;;16.43;51.87
41062;BME280;26812;42.662;23.352;2023-07-28T03:35:18;95017.31;;;15.72;53.26
41062;BME280;26812;42.662;23.352;2023-07-28T03:37:43;95031.41;;;15.50;54.70
41062;BME280;26812;42.662;23.352;2023-07-28T03:40:09;94988.25;;;15.33;54.27
41062;BME280;26812;42.662;23.352;2023-07-28T03:42:34;95044.22;;;15.77;54.02
41062;BME280;26812;42.662;23.352;2023-07-28T03:45:00;95037.31;;;15.80;54.21
41062;BME280;26812;42.662;23.352;2023-07-28T03:47:25;95033.78;;;16.07;53.17
41062;BME280;26812;42.662;23.352;2023-07-28T03:49:50;95044.34;;;16.25;52.76
41062;BME280;26812;42.662;23.352;2023-07-28T03:52:16;95046.00;;;16.29;53.04
41062;BME280;26812;42.662;23.352;2023-07-28T03:54:42;95051.44;;;16.29;52.93
41062;BME280;26812;42.662;23.352;2023-07-28T03:57:08;95040.22;;;16.62;52.01
41062;BME280;26812;42.662;23.352;2023-07-28T03:59:34;95039.88;;;16.64;51.31
41062;BME280;26812;42.662;23.352;2023-07-28T04:01:59;95031.44;;;17.00;50.86
41062;BME280;26812;42.662;23.352;2023-07-28T04:04:24;95016.13;;;17.12;50.17
41062;BME280;26812;42.662;23.352;2023-07-28T04:06:50;95019.97;;;17.11;50.64
41062;BME280;26812;42.662;23.352;2023-07-28T04:09:16;95033.19;;;16.93;51.26
41062;BME280;26812;42.662;23.352;2023-07-28T04:11:42;95038.22;;;16.75;52.03
41062;BME280;26812;42.662;23.352;2023-07-28T04:14:08;95047.78;;;16.85;51.94
41062;BME280;26812;42.662;23.352;2023-07-28T04:16:33;95048.38;;;16.78;52.63
41062;BME280;26812;42.662;23.352;2023-07-28T04:18:59;95055.66;;;16.42;54.33
41062;BME280;26812;42.662;23.352;2023-07-28T04:21:24;95044.28;;;16.68;53.47
41062;BME280;26812;42.662;23.352;2023-07-28T04:23:50;95040.22;;;16.94;53.14
41062;BME280;26812;42.662;23.352;2023-07-28T04:26:18;95041.88;;;16.35;54.61
41062;BME280;26812;42.662;23.352;2023-07-28T04:28:44;95036.72;;;16.30;55.04
41062;BME280;26812;42.662;23.352;2023-07-28T04:31:10;95054.31;;;16.52;55.07
41062;BME280;26812;42.662;23.352;2023-07-28T04:33:36;95043.81;;;16.51;54.88
41062;BME280;26812;42.662;23.352;2023-07-28T04:36:04;95042.94;;;16.94;53.94
41062;BME280;26812;42.662;23.352;2023-07-28T04:38:30;95052.06;;;17.01;53.80
41062;BME280;26812;42.662;23.352;2023-07-28T04:40:55;95050.69;;;16.92;53.88
41062;BME280;26812;42.662;23.352;2023-07-28T04:43:20;95011.78;;;16.91;53.37
41062;BME280;26812;42.662;23.352;2023-07-28T04:45:46;95050.69;;;17.27;52.96
41062;BME280;26812;42.662;23.352;2023-07-28T04:48:11;95049.47;;;17.44;51.87
41062;BME280;26812;42.662;23.352;2023-07-28T04:50:36;95035.22;;;17.31;51.89
41062;BME280;26812;42.662;23.352;2023-07-28T04:53:02;95046.81;;;17.28;52.46
41062;BME280;26812;42.662;23.352;2023-07-28T04:55:34;95043.59;;;17.42;52.08
41062;BME280;26812;42.662;23.352;2023-07-28T04:58:00;95051.09;;;18.03;50.43
41062;BME280;26812;42.662;23.352;2023-07-28T05:00:25;95043.81;;;17.87;51.11
41062;BME280;26812;42.662;23.352;2023-07-28T05:02:50;95033.03;;;17.56;52.65
41062;BME280;26812;42.662;23.352;2023-07-28T05:05:16;95040.41;;;17.75;52.08
41062;BME280;26812;42.662;23.352;2023-07-28T05:07:41;95043.44;;;18.08;50.94
41062;BME280;26812;42.662;23.352;2023-07-28T05:10:07;95040.53;;;18.20;50.57
41062;BME280;26812;42.662;23.352;2023-07-28T05:12:33;95043.25;;;18.20;50.11
41062;BME280;26812;42.662;23.352;2023-07-28T05:14:58;95053.09;;;18.48;50.07
41062;BME280;26812;42.662;23.352;2023-07-28T05:17:23;95035.75;;;18.59;48.97
41062;BME280;26812;42.662;23.352;2023-07-28T05:19:50;95047.16;;;18.88;47.97
41062;BME280;26812;42.662;23.352;2023-07-28T05:22:22;95044.63;;;18.76;47.88
41062;BME280;26812;42.662;23.352;2023-07-28T05:24:47;95039.63;;;18.58;48.56
41062;BME280;26812;42.662;23.352;2023-07-28T05:27:13;95044.44;;;18.65;48.61
41062;BME280;26812;42.662;23.352;2023-07-28T05:29:38;95040.81;;;19.07;47.52
41062;BME280;26812;42.662;23.352;2023-07-28T05:32:04;95051.47;;;19.15;46.97
41062;BME280;26812;42.662;23.352;2023-07-28T05:34:30;95032.09;;;18.98;47.99
41062;BME280;26812;42.662;23.352;2023-07-28T05:36:55;95027.91;;;19.04;48.15
41062;BME280;26812;42.662;23.352;2023-07-28T05:39:21;95040.81;;;19.33;47.67
41062;BME280;26812;42.662;23.352;2023-07-28T05:41:46;95040.59;;;19.19;47.15
41062;BME280;26812;42.662;23.352;2023-07-28T05:44:12;95030.63;;;19.30;47.18
41062;BME280;26812;42.662;23.352;2023-07-28T05:46:37;95041.16;;;19.58;47.01
41062;BME280;26812;42.662;23.352;2023-07-28T05:49:02;95032.53;;;19.86;45.49
41062;BME280;26812;42.662;23.352;2023-07-28T05:51:28;95030.00;;;19.70;45.81
41062;BME280;26812;42.662;23.352;2023-07-28T05:53:54;94993.81;;;19.50;45.86
41062;BME280;26812;42.662;23.352;2023-07-28T05:56:20;95031.78;;;19.89;46.11
41062;BME280;26812;42.662;23.352;2023-07-28T05:58:49;95023.75;;;19.70;46.27
41062;BME280;26812;42.662;23.352;2023-07-28T06:01:15;95030.34;;;19.99;45.69
41062;BME280;26812;42.662;23.352;2023-07-28T06:03:40;95022.94;;;19.99;44.27
41062;BME280;26812;42.662;23.352;2023-07-28T06:06:06;95031.22;;;20.06;45.17
41062;BME280;26812;42.662;23.352;2023-07-28T06:08:32;95014.28;;;19.94;44.80
41062;BME280;26812;42.662;23.352;2023-07-28T06:10:58;95012.00;;;19.99;45.25
41062;BME280;26812;42.662;23.352;2023-07-28T06:13:23;95000.84;;;20.19;44.98
41062;BME280;26812;42.662;23.352;2023-07-28T06:15:48;95026.44;;;20.37;44.95
41062;BME280;26812;42.662;23.352;2023-07-28T06:18:14;95028.78;;;20.35;44.51
41062;BME280;26812;42.662;23.352;2023-07-28T06:20:43;95027.91;;;20.27;44.48
41062;BME280;26812;42.662;23.352;2023-07-28T06:23:09;95025.22;;;20.31;44.95
41062;BME280;26812;42.662;23.352;2023-07-28T06:25:34;95022.44;;;20.64;44.54
41062;BME280;26812;42.662;23.352;2023-07-28T06:28:00;95025.00;;;20.91;43.73
41062;BME280;26812;42.662;23.352;2023-07-28T06:30:25;95006.59;;;20.91;43.59
41062;BME280;26812;42.662;23.352;2023-07-28T06:32:51;95012.44;;;20.42;44.74
41062;BME280;26812;42.662;23.352;2023-07-28T06:35:16;95015.03;;;20.68;44.21
41062;BME280;26812;42.662;23.352;2023-07-28T06:37:42;95019.16;;;20.96;42.69
41062;BME280;26812;42.662;23.352;2023-07-28T06:40:07;94978.59;;;20.61;42.83
41062;BME280;26812;42.662;23.352;2023-07-28T06:42:35;95017.91;;;20.86;41.52
41062;BME280;26812;42.662;23.352;2023-07-28T06:45:00;95019.56;;;20.98;42.24
41062;BME280;26812;42.662;23.352;2023-07-28T06:47:26;95004.09;;;21.23;41.80
41062;BME280;26812;42.662;23.352;2023-07-28T06:49:52;95013.56;;;21.36;41.69
41062;BME280;26812;42.662;23.352;2023-07-28T06:52:17;95010.31;;;21.20;41.67
41062;BME280;26812;42.662;23.352;2023-07-28T06:54:42;95011.63;;;21.37;41.79
41062;BME280;26812;42.662;23.352;2023-07-28T06:57:08;95018.81;;;21.66;40.43
41062;BME280;26812;42.662;23.352;2023-07-28T06:59:33;94990.81;;;21.29;40.95
41062;BME280;26812;42.662;23.352;2023-07-28T07:01:59;95013.03;;;21.86;41.54
41062;BME280;26812;42.662;23.352;2023-07-28T07:04:24;95014.97;;;21.82;40.60
41062;BME280;26812;42.662;23.352;2023-07-28T07:06:49;95009.78;;;21.59;40.62
41062;BME280;26812;42.662;23.352;2023-07-28T07:09:15;95018.13;;;21.87;40.89
41062;BME280;26812;42.662;23.352;2023-07-28T07:11:41;94981.28;;;21.78;40.13
41062;BME280;26812;42.662;23.352;2023-07-28T07:14:06;95015.91;;;22.32;39.95
41062;BME280;26812;42.662;23.352;2023-07-28T07:16:33;95017.13;;;22.52;39.29
41062;BME280;26812;42.662;23.352;2023-07-28T07:18:59;95007.72;;;22.39;38.28
41062;BME280;26812;42.662;23.352;2023-07-28T07:21:25;95004.13;;;22.14;38.95
41062;BME280;26812;42.662;23.352;2023-07-28T07:23:51;95004.97;;;22.36;39.24
41062;BME280;26812;42.662;23.352;2023-07-28T07:26:17;95012.03;;;22.51;38.88
41062;BME280;26812;42.662;23.352;2023-07-28T07:28:42;95016.72;;;22.43;38.90
41062;BME280;26812;42.662;23.352;2023-07-28T07:31:14;95008.88;;;22.42;39.07
41062;BME280;26812;42.662;23.352;2023-07-28T07:33:40;95001.44;;;22.63;38.81
41062;BME280;26812;42.662;23.352;2023-07-28T07:36:12;95021.84;;;22.59;38.85
41062;BME280;26812;42.662;23.352;2023-07-28T07:38:37;95012.84;;;22.69;38.57
41062;BME280;26812;42.662;23.352;2023-07-28T07:41:03;95022.25;;;22.72;38.82
41062;BME280;26812;42.662;23.352;2023-07-28T07:43:29;95027.75;;;23.11;38.63
41062;BME280;26812;42.662;23.352;2023-07-28T07:45:55;95023.81;;;23.33;37.75
41062;BME280;26812;42.662;23.352;2023-07-28T07:48:20;95018.72;;;23.17;37.96
41062;BME280;26812;42.662;23.352;2023-07-28T07:50:45;95015.59;;;23.12;37.75
41062;BME280;26812;42.662;23.352;2023-07-28T07:53:11;95030.88;;;23.23;37.79
41062;BME280;26812;42.662;23.352;2023-07-28T07:55:36;95032.41;;;23.64;36.72
41062;BME280;26812;42.662;23.352;2023-07-28T07:58:02;95022.56;;;23.70;36.44
41062;BME280;26812;42.662;23.352;2023-07-28T08:00:29;95035.88;;;23.82;37.06
41062;BME280;26812;42.662;23.352;2023-07-28T08:02:54;95031.56;;;23.77;36.21
41062;BME280;26812;42.662;23.352;2023-07-28T08:05:20;95032.34;;;23.78;36.50
41062;BME280;26812;42.662;23.352;2023-07-28T08:07:46;95023.69;;;23.83;36.74
41062;BME280;26812;42.662;23.352;2023-07-28T08:10:12;95013.31;;;24.19;35.94
41062;BME280;26812;42.662;23.352;2023-07-28T08:12:38;95003.50;;;24.14;35.50
41062;BME280;26812;42.662;23.352;2023-07-28T08:15:04;95029.66;;;24.55;35.63
41062;BME280;26812;42.662;23.352;2023-07-28T08:17:30;95011.72;;;24.84;34.11
41062;BME280;26812;42.662;23.352;2023-07-28T08:19:55;95029.94;;;24.67;34.19
41062;BME280;26812;42.662;23.352;2023-07-28T08:22:20;95026.97;;;24.96;33.77
41062;BME280;26812;42.662;23.352;2023-07-28T08:24:46;95022.22;;;24.44;35.12
41062;BME280;26812;42.662;23.352;2023-07-28T08:27:11;95015.59;;;24.38;35.44
41062;BME280;26812;42.662;23.352;2023-07-28T08:29:37;94998.38;;;24.16;35.63
41062;BME280;26812;42.662;23.352;2023-07-28T08:32:02;95023.56;;;24.19;35.83
41062;BME280;26812;42.662;23.352;2023-07-28T08:34:27;95005.81;;;24.23;35.32
41062;BME280;26812;42.662;23.352;2023-07-28T08:36:53;95022.78;;;24.81;34.22
41062;BME280;26812;42.662;23.352;2023-07-28T08:39:18;95016.00;;;24.92;34.14
41062;BME280;26812;42.662;23.352;2023-07-28T08:41:44;95013.59;;;24.94;33.94
41062;BME280;26812;42.662;23.352;2023-07-28T08:44:09;95009.84;;;25.22;33.60
41062;BME280;26812;42.662;23.352;2023-07-28T08:46:35;95017.16;;;25.39;33.60
41062;BME280;26812;42.662;23.352;2023-07-28T08:49:01;95016.53;;;25.62;33.53
41062;BME280;26812;42.662;23.352;2023-07-28T08:51:26;95001.75;;;25.46;32.20
41062;BME280;26812;42.662;23.352;2023-07-28T08:53:52;94990.53;;;25.60;32.78
41062;BME280;26812;42.662;23.352;2023-07-28T08:56:24;94994.50;;;25.59;32.04
41062;BME280;26812;42.662;23.352;2023-07-28T08:58:57;94985.13;;;25.53;32.68
41062;BME280;26812;42.662;23.352;2023-07-28T09:01:23;94991.53;;;25.80;33.12
41062;BME280;26812;42.662;23.352;2023-07-28T09:03:49;94979.50;;;25.94;32.51
41062;BME280;26812;42.662;23.352;2023-07-28T09:06:15;94980.66;;;26.27;32.12
41062;BME280;26812;42.662;23.352;2023-07-28T09:08:43;94977.19;;;26.50;32.07
41062;BME280;26812;42.662;23.352;2023-07-28T09:11:08;94972.16;;;26.45;32.02
41062;BME280;26812;42.662;23.352;2023-07-28T09:13:39;94971.25;;;26.51;32.01
41062;BME280;26812;42.662;23.352;2023-07-28T09:16:19;94958.25;;;26.75;31.35
41062;BME280;26812;42.662;23.352;2023-07-28T09:18:44;94964.31;;;26.67;30.59
41062;BME280;26812;42.662;23.352;2023-07-28T09:21:16;94955.03;;;26.53;30.95
41062;BME280;26812;42.662;23.352;2023-07-28T09:23:49;94945.19;;;26.52;30.80
41062;BME280;26812;42.662;23.352;2023-07-28T09:26:16;94943.47;;;26.08;31.34
41062;BME280;26812;42.662;23.352;2023-07-28T09:28:42;94944.28;;;26.05;32.11
41062;BME280;26812;42.662;23.352;2023-07-28T09:31:08;94939.59;;;26.29;32.27
41062;BME280;26812;42.662;23.352;2023-07-28T09:33:36;94931.97;;;26.87;31.93
41062;BME280;26812;42.662;23.352;2023-07-28T09:36:12;94932.41;;;26.85;31.48
41062;BME280;26812;42.662;23.352;2023-07-28T09:38:39;94919.78;;;26.84;30.78
41062;BME280;26812;42.662;23.352;2023-07-28T09:41:07;94921.13;;;26.76;31.64
41062;BME280;26812;42.662;23.352;2023-07-28T09:43:36;94893.13;;;26.98;31.29
41062;BME280;26812;42.662;23.352;2023-07-28T09:46:08;94919.09;;;27.67;30.83
41062;BME280;26812;42.662;23.352;2023-07-28T09:48:34;94915.63;;;27.63;29.92
41062;BME280;26812;42.662;23.352;2023-07-28T09:51:09;94900.44;;;27.71;30.02
41062;BME280;26812;42.662;23.352;2023-07-28T09:53:40;94905.81;;;27.78;28.74
41062;BME280;26812;42.662;23.352;2023-07-28T09:56:10;94909.06;;;27.73;28.85
41062;BME280;26812;42.662;23.352;2023-07-28T09:58:41;94908.56;;;27.78;29.08
41062;BME280;26812;42.662;23.352;2023-07-28T10:01:09;94887.47;;;27.84;28.93
41062;BME280;26812;42.662;23.352;2023-07-28T10:03:36;94898.94;;;27.86;28.53
41062;BME280;26812;42.662;23.352;2023-07-28T10:06:02;94900.06;;;27.89;28.72
41062;BME280;26812;42.662;23.352;2023-07-28T10:08:28;94888.56;;;27.70;28.79
41062;BME280;26812;42.662;23.352;2023-07-28T10:10:54;94884.94;;;27.73;28.56
41062;BME280;26812;42.662;23.352;2023-07-28T10:13:21;94883.88;;;27.87;28.34
41062;BME280;26812;42.662;23.352;2023-07-28T10:15:46;94900.28;;;27.58;28.43
41062;BME280;26812;42.662;23.352;2023-07-28T10:18:15;94890.09;;;27.51;29.94
41062;BME280;26812;42.662;23.352;2023-07-28T10:20:42;94888.66;;;27.67;28.21
41062;BME280;26812;42.662;23.352;2023-07-28T10:23:13;94890.06;;;27.75;28.51
41062;BME280;26812;42.662;23.352;2023-07-28T10:25:40;94884.84;;;27.97;28.87
41062;BME280;26812;42.662;23.352;2023-07-28T10:28:07;94854.13;;;27.91;28.87
41062;BME280;26812;42.662;23.352;2023-07-28T10:30:54;94888.72;;;28.35;28.14
41062;BME280;26812;42.662;23.352;2023-07-28T10:33:40;94879.13;;;28.56;27.53
41062;BME280;26812;42.662;23.352;2023-07-28T10:39:14;94870.38;;;28.58;26.61
41062;BME280;26812;42.662;23.352;2023-07-28T10:42:01;94856.47;;;28.74;27.17
41062;BME280;26812;42.662;23.352;2023-07-28T10:44:27;94857.53;;;28.80;27.29
41062;BME280;26812;42.662;23.352;2023-07-28T10:46:52;94860.09;;;27.90;27.17
41062;BME280;26812;42.662;23.352;2023-07-28T10:49:19;94838.91;;;27.43;27.76
41062;BME280;26812;42.662;23.352;2023-07-28T10:51:44;94837.69;;;27.44;28.07
41062;BME280;26812;42.662;23.352;2023-07-28T10:54:10;94854.59;;;28.22;27.43
41062;BME280;26812;42.662;23.352;2023-07-28T10:56:40;94839.44;;;28.43;27.45
41062;BME280;26812;42.662;23.352;2023-07-28T10:59:06;94844.91;;;28.63;27.59
41062;BME280;26812;42.662;23.352;2023-07-28T11:01:38;94845.16;;;28.85;26.42
41062;BME280;26812;42.662;23.352;2023-07-28T11:04:14;94840.97;;;28.93;27.25
41062;BME280;26812;42.662;23.352;2023-07-28T11:06:47;94816.91;;;29.19;27.08
41062;BME280;26812;42.662;23.352;2023-07-28T11:09:18;94829.81;;;29.38;26.66
41062;BME280;26812;42.662;23.352;2023-07-28T11:11:44;94837.25;;;29.70;26.12
41062;BME280;26812;42.662;23.352;2023-07-28T11:14:10;94818.94;;;29.73;25.99
41062;BME280;26812;42.662;23.352;2023-07-28T11:16:37;94820.19;;;30.10;25.41
41062;BME280;26812;42.662;23.352;2023-07-28T11:19:08;94812.72;;;30.19;25.58
41062;BME280;26812;42.662;23.352;2023-07-28T11:21:39;94793.06;;;30.14;24.75
41062;BME280;26812;42.662;23.352;2023-07-28T11:24:09;94809.72;;;30.14;25.19
41062;BME280;26812;42.662;23.352;2023-07-28T11:26:39;94803.28;;;30.17;24.79
41062;BME280;26812;42.662;23.352;2023-07-28T11:29:05;94795.63;;;30.08;25.38
41062;BME280;26812;42.662;23.352;2023-07-28T11:31:31;94801.16;;;30.34;24.97
41062;BME280;26812;42.662;23.352;2023-07-28T11:33:58;94799.56;;;30.45;24.86
41062;BME280;26812;42.662;23.352;2023-07-28T11:36:25;94789.19;;;30.71;25.27
41062;BME280;26812;42.662;23.352;2023-07-28T11:38:52;94785.09;;;30.50;25.20
41062;BME280;26812;42.662;23.352;2023-07-28T11:41:19;94787.88;;;30.98;24.11
41062;BME280;26812;42.662;23.352;2023-07-28T11:43:45;94760.94;;;30.73;24.08
41062;BME280;26812;42.662;23.352;2023-07-28T11:46:36;94790.47;;;30.92;24.35
41062;BME280;26812;42.662;23.352;2023-07-28T11:49:11;94785.31;;;30.69;24.07
41062;BME280;26812;42.662;23.352;2023-07-28T11:51:45;94772.56;;;30.46;24.52
41062;BME280;26812;42.662;23.352;2023-07-28T11:54:13;94781.13;;;30.86;24.36
41062;BME280;26812;42.662;23.352;2023-07-28T11:56:53;94789.81;;;31.10;24.27
41062;BME280;26812;42.662;23.352;2023-07-28T11:59:19;94777.28;;;31.27;23.73
41062;BME280;26812;42.662;23.352;2023-07-28T12:01:52;94792.59;;;31.10;24.07
41062;BME280;26812;42.662;23.352;2023-07-28T12:04:22;94774.28;;;31.22;23.63
41062;BME280;26812;42.662;23.352;2023-07-28T12:07:12;94775.56;;;31.51;23.19
41062;BME280;26812;42.662;23.352;2023-07-28T12:12:22;94772.09;;;31.69;22.52
41062;BME280;26812;42.662;23.352;2023-07-28T12:14:49;94770.69;;;31.65;23.14
41062;BME280;26812;42.662;23.352;2023-07-28T12:17:22;94773.25;;;31.81;23.26
41062;BME280;26812;42.662;23.352;2023-07-28T12:22:30;94767.03;;;31.77;22.55
41062;BME280;26812;42.662;23.352;2023-07-28T12:24:58;94763.41;;;31.89;22.74
41062;BME280;26812;42.662;23.352;2023-07-28T12:27:24;94750.88;;;31.94;22.36
41062;BME280;26812;42.662;23.352;2023-07-28T12:29:51;94754.59;;;31.60;21.92
41062;BME280;26812;42.662;23.352;2023-07-28T12:32:17;94765.53;;;31.10;22.16
41062;BME280;26812;42.662;23.352;2023-07-28T12:34:43;94747.69;;;30.99;23.76
41062;BME280;26812;42.662;23.352;2023-07-28T12:37:09;94741.34;;;31.20;23.32
41062;BME280;26812;42.662;23.352;2023-07-28T12:39:37;94757.03;;;31.27;23.45
41062;BME280;26812;42.662;23.352;2023-07-28T12:42:08;94740.28;;;31.48;23.05
41062;BME280;26812;42.662;23.352;2023-07-28T12:44:35;94724.97;;;31.22;23.28
41062;BME280;26812;42.662;23.352;2023-07-28T12:47:01;94707.72;;;30.83;24.25
41062;BME280;26812;42.662;23.352;2023-07-28T12:49:27;94743.59;;;31.12;23.79
41062;BME280;26812;42.662;23.352;2023-07-28T12:51:58;94743.75;;;31.62;23.80
41062;BME280;26812;42.662;23.352;2023-07-28T12:54:24;94733.31;;;31.75;23.33
41062;BME280;26812;42.662;23.352;2023-07-28T12:56:50;94737.25;;;31.56;23.73
41062;BME280;26812;42.662;23.352;2023-07-28T12:59:16;94718.69;;;31.62;23.59